sensor_id;sensor_type;location;lat;lon;timestamp;pressure;altitude;pressure_sealevel;temperature;humidity
28428;BME280;15662;49.128;8.520;2023-03-15T00:01:23;100206.19;;;9.79;59.83
28428;BME280;15662;49.128;8.520;2023-03-15T00:03:54;100213.28;;;9.79;59.87
28428;BME280;15662;49.128;8.520;2023-03-15T00:06:22;100207.31;;;9.71;60.22
28428;BME280;15662;49.128;8.520;2023-03-15T00:08:50;100211.72;;;9.70;60.15
28428;BME280;15662;49.128;8.520;2023-03-15T00:11:19;100216.13;;;9.71;60.25
28428;BME280;15662;49.128;8.520;2023-03-15T00:13:48;100243.19;;;9.82;60.02
28428;BME280;15662;49.128;8.520;2023-03-15T00:16:17;100243.22;;;9.81;60.46
28428;BME280;15662;49.128;8.520;2023-03-15T00:18:47;100242.31;;;9.82;60.09
28428;BME280;15662;49.128;8.520;2023-03-15T00:21:15;100250.16;;;9.85;60.28
28428;BME280;15662;49.128;8.520;2023-03-15T00:23:43;100257.22;;;9.86;60.11
28428;BME280;15662;49.128;8.520;2023-03-15T00:26:12;100253.72;;;9.84;60.00
28428;BME280;15662;49.128;8.520;2023-03-15T00:28:40;100267.81;;;9.86;59.96
28428;BME280;15662;49.128;8.520;2023-03-15T00:31:16;100255.56;;;9.82;59.87
28428;BME280;15662;49.128;8.520;2023-03-15T00:33:46;100265.38;;;9.77;59.75
28428;BME280;15662;49.128;8.520;2023-03-15T00:36:17;100261.13;;;9.70;59.84
28428;BME280;15662;49.128;8.520;2023-03-15T00:38:45;100269.00;;;9.73;59.52
28428;BME280;15662;49.128;8.520;2023-03-15T00:41:16;100263.00;;;9.66;59.36
28428;BME280;15662;49.128;8.520;2023-03-15T00:43:46;100263.22;;;9.55;59.29
28428;BME280;15662;49.128;8.520;2023-03-15T00:46:17;100278.22;;;9.56;59.08
28428;BME280;15662;49.128;8.520;2023-03-15T00:48:50;100264.44;;;9.42;58.95
28428;BME280;15662;49.128;8.520;2023-03-15T00:51:22;100281.88;;;9.51;58.75
28428;BME280;15662;49.128;8.520;2023-03-15T00:53:52;100264.63;;;9.33;59.40
28428;BME280;15662;49.128;8.520;2023-03-15T00:56:26;100295.28;;;9.43;58.75
28428;BME280;15662;49.128;8.520;2023-03-15T00:58:58;100278.88;;;9.26;59.01
28428;BME280;15662;49.128;8.520;2023-03-15T01:01:28;100296.34;;;9.35;58.96
28428;BME280;15662;49.128;8.520;2023-03-15T01:03:57;100297.31;;;9.30;58.89
28428;BME280;15662;49.128;8.520;2023-03-15T01:06:27;100300.94;;;9.26;58.99
28428;BME280;15662;49.128;8.520;2023-03-15T01:08:56;100296.75;;;9.16;59.31
28428;BME280;15662;49.128;8.520;2023-03-15T01:11:26;100276.84;;;8.98;59.21
28428;BME280;15662;49.128;8.520;2023-03-15T01:13:57;100299.09;;;8.88;59.28
28428;BME280;15662;49.128;8.520;2023-03-15T01:16:27;100279.94;;;8.77;59.46
28428;BME280;15662;49.128;8.520;2023-03-15T01:18:55;100307.84;;;8.90;59.58
28428;BME280;15662;49.128;8.520;2023-03-15T01:21:25;100287.88;;;8.77;59.48
28428;BME280;15662;49.128;8.520;2023-03-15T01:23:54;100308.78;;;8.86;59.78
28428;BME280;15662;49.128;8.520;2023-03-15T01:26:25;100295.72;;;8.80;59.87
28428;BME280;15662;49.128;8.520;2023-03-15T01:28:55;100310.69;;;8.79;59.69
28428;BME280;15662;49.128;8.520;2023-03-15T01:31:28;100294.09;;;8.71;59.68
28428;BME280;15662;49.128;8.520;2023-03-15T01:33:58;100306.44;;;8.72;59.94
28428;BME280;15662;49.128;8.520;2023-03-15T01:36:31;100296.88;;;8.65;59.81
28428;BME280;15662;49.128;8.520;2023-03-15T01:39:00;100293.41;;;8.63;60.01
28428;BME280;15662;49.128;8.520;2023-03-15T01:41:39;100290.84;;;8.59;59.67
28428;BME280;15662;49.128;8.520;2023-03-15T01:44:17;100310.88;;;8.70;59.56
28428;BME280;15662;49.128;8.520;2023-03-15T01:46:47;100311.88;;;8.65;59.77
28428;BME280;15662;49.128;8.520;2023-03-15T01:49:31;100321.53;;;8.67;59.74
28428;BME280;15662;49.128;8.520;2023-03-15T01:52:06;100316.25;;;8.67;59.76
28428;BME280;15662;49.128;8.520;2023-03-15T01:55:03;100317.09;;;8.66;59.65
28428;BME280;15662;49.128;8.520;2023-03-15T01:57:53;100316.28;;;8.64;59.20
28428;BME280;15662;49.128;8.520;2023-03-15T02:00:44;100308.53;;;8.55;59.54
28428;BME280;15662;49.128;8.520;2023-03-15T02:03:22;100308.56;;;8.53;59.95
28428;BME280;15662;49.128;8.520;2023-03-15T02:05:57;100320.81;;;8.58;59.29
28428;BME280;15662;49.128;8.520;2023-03-15T02:08:45;100327.03;;;8.53;59.33
28428;BME280;15662;49.128;8.520;2023-03-15T02:11:19;100335.88;;;8.51;59.44
28428;BME280;15662;49.128;8.520;2023-03-15T02:13:50;100314.13;;;8.35;59.72
28428;BME280;15662;49.128;8.520;2023-03-15T02:16:21;100345.66;;;8.46;59.75
28428;BME280;15662;49.128;8.520;2023-03-15T02:19:01;100345.81;;;8.35;59.63
28428;BME280;15662;49.128;8.520;2023-03-15T02:22:31;100346.00;;;8.24;59.31
28428;BME280;15662;49.128;8.520;2023-03-15T02:25:30;100370.53;;;8.31;59.56
28428;BME280;15662;49.128;8.520;2023-03-15T02:28:05;100371.53;;;8.22;60.02
28428;BME280;15662;49.128;8.520;2023-03-15T02:30:36;100373.34;;;8.20;59.84
28428;BME280;15662;49.128;8.520;2023-03-15T02:33:52;100371.63;;;8.19;59.67
28428;BME280;15662;49.128;8.520;2023-03-15T02:36:22;100358.59;;;8.09;59.58
28428;BME280;15662;49.128;8.520;2023-03-15T02:38:52;100360.50;;;7.97;59.98
28428;BME280;15662;49.128;8.520;2023-03-15T02:41:38;100377.13;;;8.02;59.69
28428;BME280;15662;49.128;8.520;2023-03-15T02:44:22;100387.66;;;8.06;59.85
28428;BME280;15662;49.128;8.520;2023-03-15T02:47:08;100392.13;;;8.00;59.87
28428;BME280;15662;49.128;8.520;2023-03-15T02:49:44;100397.44;;;7.97;59.97
28428;BME280;15662;49.128;8.520;2023-03-15T02:52:14;100398.41;;;7.93;60.40
28428;BME280;15662;49.128;8.520;2023-03-15T02:54:44;100403.69;;;7.93;59.72
28428;BME280;15662;49.128;8.520;2023-03-15T02:57:16;100399.44;;;7.83;60.19
28428;BME280;15662;49.128;8.520;2023-03-15T02:59:47;100397.78;;;7.76;60.18
28428;BME280;15662;49.128;8.520;2023-03-15T03:02:19;100423.09;;;7.88;60.39
28428;BME280;15662;49.128;8.520;2023-03-15T03:04:49;100424.94;;;7.84;59.95
28428;BME280;15662;49.128;8.520;2023-03-15T03:07:19;100417.09;;;7.76;59.82
28428;BME280;15662;49.128;8.520;2023-03-15T03:09:53;100444.28;;;7.85;59.75
28428;BME280;15662;49.128;8.520;2023-03-15T03:12:24;100409.31;;;7.69;59.79
28428;BME280;15662;49.128;8.520;2023-03-15T03:14:54;100436.31;;;7.86;60.06
28428;BME280;15662;49.128;8.520;2023-03-15T03:17:24;100438.09;;;7.86;59.93
28428;BME280;15662;49.128;8.520;2023-03-15T03:19:53;100432.88;;;7.81;59.95
28428;BME280;15662;49.128;8.520;2023-03-15T03:22:30;100430.22;;;7.84;60.41
28428;BME280;15662;49.128;8.520;2023-03-15T03:25:00;100439.84;;;7.88;60.06
28428;BME280;15662;49.128;8.520;2023-03-15T03:27:30;100420.66;;;7.75;59.78
28428;BME280;15662;49.128;8.520;2023-03-15T03:29:59;100452.09;;;7.91;59.81
28428;BME280;15662;49.128;8.520;2023-03-15T03:32:28;100448.63;;;7.89;59.76
28428;BME280;15662;49.128;8.520;2023-03-15T03:34:57;100458.31;;;7.87;59.88
28428;BME280;15662;49.128;8.520;2023-03-15T03:37:26;100437.34;;;7.76;59.84
28428;BME280;15662;49.128;8.520;2023-03-15T03:40:01;100455.78;;;7.79;60.17
28428;BME280;15662;49.128;8.520;2023-03-15T03:42:35;100449.63;;;7.79;59.73
28428;BME280;15662;49.128;8.520;2023-03-15T03:45:07;100439.16;;;7.72;59.46
28428;BME280;15662;49.128;8.520;2023-03-15T03:47:47;100459.28;;;7.78;60.03
28428;BME280;15662;49.128;8.520;2023-03-15T03:50:16;100461.94;;;7.78;59.79
28428;BME280;15662;49.128;8.520;2023-03-15T03:52:44;100461.97;;;7.76;59.50
28428;BME280;15662;49.128;8.520;2023-03-15T03:55:20;100471.56;;;7.84;59.96
28428;BME280;15662;49.128;8.520;2023-03-15T03:57:53;100481.25;;;7.83;59.65
28428;BME280;15662;49.128;8.520;2023-03-15T04:00:59;100469.94;;;7.72;59.67
28428;BME280;15662;49.128;8.520;2023-03-15T04:03:32;100473.41;;;7.75;59.54
28428;BME280;15662;49.128;8.520;2023-03-15T04:06:16;100490.94;;;7.81;59.35
28428;BME280;15662;49.128;8.520;2023-03-15T04:08:48;100461.25;;;7.62;59.42
28428;BME280;15662;49.128;8.520;2023-03-15T04:11:31;100477.78;;;7.76;59.85
28428;BME280;15662;49.128;8.520;2023-03-15T04:14:10;100489.19;;;7.80;59.66
28428;BME280;15662;49.128;8.520;2023-03-15T04:16:40;100493.66;;;7.75;59.54
28428;BME280;15662;49.128;8.520;2023-03-15T04:19:12;100482.28;;;7.70;59.62
28428;BME280;15662;49.128;8.520;2023-03-15T04:21:40;100470.91;;;7.63;59.46
28428;BME280;15662;49.128;8.520;2023-03-15T04:24:34;100465.69;;;7.60;59.54
28428;BME280;15662;49.128;8.520;2023-03-15T04:27:08;100479.63;;;7.71;59.51
28428;BME280;15662;49.128;8.520;2023-03-15T04:29:58;100494.53;;;7.72;59.09
28428;BME280;15662;49.128;8.520;2023-03-15T04:32:26;100479.72;;;7.62;59.31
28428;BME280;15662;49.128;8.520;2023-03-15T04:35:30;100491.09;;;7.67;59.35
28428;BME280;15662;49.128;8.520;2023-03-15T04:38:08;100462.31;;;7.49;59.61
28428;BME280;15662;49.128;8.520;2023-03-15T04:40:46;100489.41;;;7.62;59.60
28428;BME280;15662;49.128;8.520;2023-03-15T04:43:37;100486.00;;;7.52;59.47
28428;BME280;15662;49.128;8.520;2023-03-15T04:46:32;100480.78;;;7.47;59.46
28428;BME280;15662;49.128;8.520;2023-03-15T04:49:27;100468.59;;;7.37;59.28
28428;BME280;15662;49.128;8.520;2023-03-15T04:52:03;100500.94;;;7.52;59.72
28428;BME280;15662;49.128;8.520;2023-03-15T04:54:53;100495.81;;;7.39;59.53
28428;BME280;15662;49.128;8.520;2023-03-15T04:57:48;100493.19;;;7.38;59.56
28428;BME280;15662;49.128;8.520;2023-03-15T05:00:42;100481.88;;;7.28;59.90
28428;BME280;15662;49.128;8.520;2023-03-15T05:03:36;100509.00;;;7.41;60.05
28428;BME280;15662;49.128;8.520;2023-03-15T05:06:13;100508.13;;;7.40;59.75
28428;BME280;15662;49.128;8.520;2023-03-15T05:09:20;100516.09;;;7.34;60.33
28428;BME280;15662;49.128;8.520;2023-03-15T05:12:24;100495.13;;;7.19;60.52
28428;BME280;15662;49.128;8.520;2023-03-15T05:14:58;100492.53;;;7.16;60.56
28428;BME280;15662;49.128;8.520;2023-03-15T05:17:47;100494.25;;;7.18;60.50
28428;BME280;15662;49.128;8.520;2023-03-15T05:20:39;100503.84;;;7.27;60.50
28428;BME280;15662;49.128;8.520;2023-03-15T05:23:34;100508.22;;;7.28;59.93
28428;BME280;15662;49.128;8.520;2023-03-15T05:26:18;100506.56;;;7.21;60.27
28428;BME280;15662;49.128;8.520;2023-03-15T05:28:53;100519.69;;;7.24;60.90
28428;BME280;15662;49.128;8.520;2023-03-15T05:31:43;100528.50;;;7.23;61.10
28428;BME280;15662;49.128;8.520;2023-03-15T05:34:32;100515.41;;;7.14;60.71
28428;BME280;15662;49.128;8.520;2023-03-15T05:37:22;100524.13;;;7.22;61.12
28428;BME280;15662;49.128;8.520;2023-03-15T05:40:23;100534.59;;;7.28;60.84
28428;BME280;15662;49.128;8.520;2023-03-15T05:43:17;100531.09;;;7.29;61.19
28428;BME280;15662;49.128;8.520;2023-03-15T05:46:05;100526.72;;;7.27;61.57
28428;BME280;15662;49.128;8.520;2023-03-15T05:48:43;100533.72;;;7.29;61.55
28428;BME280;15662;49.128;8.520;2023-03-15T05:51:27;100527.56;;;7.30;61.47
28428;BME280;15662;49.128;8.520;2023-03-15T05:54:09;100535.38;;;7.38;61.76
28428;BME280;15662;49.128;8.520;2023-03-15T05:56:56;100524.94;;;7.27;61.67
28428;BME280;15662;49.128;8.520;2023-03-15T05:59:37;100538.13;;;7.27;61.78
28428;BME280;15662;49.128;8.520;2023-03-15T06:02:39;100538.97;;;7.31;61.93
28428;BME280;15662;49.128;8.520;2023-03-15T06:05:26;100532.81;;;7.29;62.11
28428;BME280;15662;49.128;8.520;2023-03-15T06:07:56;100549.44;;;7.38;61.57
28428;BME280;15662;49.128;8.520;2023-03-15T06:10:24;100556.47;;;7.41;61.80
28428;BME280;15662;49.128;8.520;2023-03-15T06:12:54;100545.91;;;7.41;61.97
28428;BME280;15662;49.128;8.520;2023-03-15T06:15:23;100545.03;;;7.39;62.17
28428;BME280;15662;49.128;8.520;2023-03-15T06:17:56;100546.72;;;7.46;62.13
28428;BME280;15662;49.128;8.520;2023-03-15T06:20:24;100542.34;;;7.46;62.34
28428;BME280;15662;49.128;8.520;2023-03-15T06:22:53;100563.28;;;7.62;62.57
28428;BME280;15662;49.128;8.520;2023-03-15T06:25:31;100568.53;;;7.63;62.39
28428;BME280;15662;49.128;8.520;2023-03-15T06:28:00;100569.34;;;7.70;62.24
28428;BME280;15662;49.128;8.520;2023-03-15T06:30:28;100568.41;;;7.75;62.52
28428;BME280;15662;49.128;8.520;2023-03-15T06:32:59;100577.19;;;7.76;62.91
28428;BME280;15662;49.128;8.520;2023-03-15T06:35:30;100571.88;;;7.81;62.84
28428;BME280;15662;49.128;8.520;2023-03-15T06:37:58;100562.19;;;7.78;62.63
28428;BME280;15662;49.128;8.520;2023-03-15T06:40:28;100567.47;;;7.81;62.80
28428;BME280;15662;49.128;8.520;2023-03-15T06:42:56;100581.44;;;7.89;62.55
28428;BME280;15662;49.128;8.520;2023-03-15T06:45:25;100581.44;;;7.89;62.18
28428;BME280;15662;49.128;8.520;2023-03-15T06:47:55;100590.25;;;7.90;62.17
28428;BME280;15662;49.128;8.520;2023-03-15T06:50:25;100591.97;;;7.91;62.25
28428;BME280;15662;49.128;8.520;2023-03-15T06:53:01;100580.56;;;7.90;62.52
28428;BME280;15662;49.128;8.520;2023-03-15T06:55:29;100569.16;;;7.87;62.41
28428;BME280;15662;49.128;8.520;2023-03-15T06:57:57;100573.53;;;7.88;62.65
28428;BME280;15662;49.128;8.520;2023-03-15T07:00:26;100575.16;;;7.99;62.90
28428;BME280;15662;49.128;8.520;2023-03-15T07:02:58;100587.41;;;8.08;62.76
28428;BME280;15662;49.128;8.520;2023-03-15T07:05:26;100579.41;;;8.13;63.04
28428;BME280;15662;49.128;8.520;2023-03-15T07:07:54;100570.53;;;8.18;62.61
28428;BME280;15662;49.128;8.520;2023-03-15T07:10:25;100559.94;;;8.23;63.60
28428;BME280;15662;49.128;8.520;2023-03-15T07:12:56;100573.00;;;8.31;63.46
28428;BME280;15662;49.128;8.520;2023-03-15T07:15:24;100564.19;;;8.32;62.69
28428;BME280;15662;49.128;8.520;2023-03-15T07:17:52;100581.69;;;8.43;63.04
28428;BME280;15662;49.128;8.520;2023-03-15T07:20:21;100589.47;;;8.54;63.62
28428;BME280;15662;49.128;8.520;2023-03-15T07:22:51;100593.81;;;8.58;63.60
28428;BME280;15662;49.128;8.520;2023-03-15T07:25:19;100579.66;;;8.61;63.62
28428;BME280;15662;49.128;8.520;2023-03-15T07:27:51;100577.00;;;8.64;64.06
28428;BME280;15662;49.128;8.520;2023-03-15T07:30:20;100581.31;;;8.69;63.53
28428;BME280;15662;49.128;8.520;2023-03-15T07:32:48;100577.78;;;8.72;63.89
28428;BME280;15662;49.128;8.520;2023-03-15T07:35:17;100607.47;;;8.88;63.42
28428;BME280;15662;49.128;8.520;2023-03-15T07:37:46;100606.50;;;8.93;63.34
28428;BME280;15662;49.128;8.520;2023-03-15T07:40:14;100608.19;;;8.99;63.24
28428;BME280;15662;49.128;8.520;2023-03-15T07:42:43;100616.88;;;9.05;63.83
28428;BME280;15662;49.128;8.520;2023-03-15T07:45:13;100627.31;;;9.16;63.25
28428;BME280;15662;49.128;8.520;2023-03-15T07:47:44;100634.34;;;9.17;63.43
28428;BME280;15662;49.128;8.520;2023-03-15T07:50:14;100626.31;;;9.23;63.23
28428;BME280;15662;49.128;8.520;2023-03-15T07:52:44;100617.44;;;9.26;63.41
28428;BME280;15662;49.128;8.520;2023-03-15T07:55:14;100601.59;;;9.24;63.71
28428;BME280;15662;49.128;8.520;2023-03-15T07:57:41;100623.38;;;9.42;63.13
28428;BME280;15662;49.128;8.520;2023-03-15T08:00:11;100613.66;;;9.42;63.11
28428;BME280;15662;49.128;8.520;2023-03-15T08:02:41;100624.97;;;9.52;63.29
28428;BME280;15662;49.128;8.520;2023-03-15T08:05:10;100624.81;;;9.60;63.13
28428;BME280;15662;49.128;8.520;2023-03-15T08:07:38;100612.44;;;9.62;63.42
28428;BME280;15662;49.128;8.520;2023-03-15T08:10:07;100620.22;;;9.71;62.21
28428;BME280;15662;49.128;8.520;2023-03-15T08:12:38;100632.47;;;9.76;61.96
28428;BME280;15662;49.128;8.520;2023-03-15T08:15:12;100632.41;;;9.78;61.97
28428;BME280;15662;49.128;8.520;2023-03-15T08:17:43;100632.31;;;9.84;62.56
28428;BME280;15662;49.128;8.520;2023-03-15T08:20:14;100631.38;;;9.87;62.07
28428;BME280;15662;49.128;8.520;2023-03-15T08:22:47;100637.44;;;9.93;62.34
28428;BME280;15662;49.128;8.520;2023-03-15T08:25:20;100630.41;;;9.92;61.71
28428;BME280;15662;49.128;8.520;2023-03-15T08:27:50;100640.03;;;9.95;61.36
28428;BME280;15662;49.128;8.520;2023-03-15T08:30:20;100637.38;;;9.95;61.62
28428;BME280;15662;49.128;8.520;2023-03-15T08:32:50;100652.22;;;10.05;61.44
28428;BME280;15662;49.128;8.520;2023-03-15T08:35:22;100652.06;;;10.13;61.74
28428;BME280;15662;49.128;8.520;2023-03-15T08:37:51;100638.66;;;10.22;61.58
28428;BME280;15662;49.128;8.520;2023-03-15T08:40:21;100639.31;;;10.35;61.68
28428;BME280;15662;49.128;8.520;2023-03-15T08:42:54;100655.78;;;10.50;61.17
28428;BME280;15662;49.128;8.520;2023-03-15T08:45:26;100641.56;;;10.53;61.42
28428;BME280;15662;49.128;8.520;2023-03-15T08:47:58;100637.78;;;10.65;61.49
28428;BME280;15662;49.128;8.520;2023-03-15T08:50:27;100649.91;;;10.76;60.87
28428;BME280;15662;49.128;8.520;2023-03-15T08:52:56;100631.50;;;10.69;59.01
28428;BME280;15662;49.128;8.520;2023-03-15T08:55:25;100659.59;;;10.77;58.53
28428;BME280;15662;49.128;8.520;2023-03-15T08:57:53;100639.44;;;10.69;58.35
28428;BME280;15662;49.128;8.520;2023-03-15T09:00:23;100639.50;;;10.67;57.39
28428;BME280;15662;49.128;8.520;2023-03-15T09:02:55;100649.09;;;10.73;58.11
28428;BME280;15662;49.128;8.520;2023-03-15T09:05:25;100640.25;;;10.72;58.01
28428;BME280;15662;49.128;8.520;2023-03-15T09:07:53;100658.53;;;10.86;57.96
28428;BME280;15662;49.128;8.520;2023-03-15T09:10:23;100654.97;;;10.87;57.46
28428;BME280;15662;49.128;8.520;2023-03-15T09:12:51;100644.25;;;10.92;57.05
28428;BME280;15662;49.128;8.520;2023-03-15T09:15:21;100645.09;;;10.94;56.98
28428;BME280;15662;49.128;8.520;2023-03-15T09:17:52;100665.22;;;11.04;57.18
28428;BME280;15662;49.128;8.520;2023-03-15T09:20:21;100663.22;;;11.14;57.61
28428;BME280;15662;49.128;8.520;2023-03-15T09:22:56;100666.53;;;11.22;57.26
28428;BME280;15662;49.128;8.520;2023-03-15T09:25:26;100667.31;;;11.27;56.71
28428;BME280;15662;49.128;8.520;2023-03-15T09:27:55;100667.19;;;11.33;56.56
28428;BME280;15662;49.128;8.520;2023-03-15T09:30:24;100654.03;;;11.27;56.18
28428;BME280;15662;49.128;8.520;2023-03-15T09:32:53;100648.78;;;11.25;54.91
28428;BME280;15662;49.128;8.520;2023-03-15T09:35:22;100656.53;;;11.34;55.71
28428;BME280;15662;49.128;8.520;2023-03-15T09:37:50;100667.78;;;11.43;54.62
28428;BME280;15662;49.128;8.520;2023-03-15T09:40:28;100638.84;;;11.33;54.86
28428;BME280;15662;49.128;8.520;2023-03-15T09:49:19;100673.25;;;11.38;52.94
28428;BME280;15662;49.128;8.520;2023-03-15T09:55:21;100671.78;;;11.25;52.72
28428;BME280;15662;49.128;8.520;2023-03-15T09:58:20;100682.28;;;11.29;52.33
28428;BME280;15662;49.128;8.520;2023-03-15T10:01:12;100682.28;;;11.29;53.18
28428;BME280;15662;49.128;8.520;2023-03-15T10:03:50;100689.19;;;11.36;52.11
28428;BME280;15662;49.128;8.520;2023-03-15T10:06:28;100684.91;;;11.31;51.45
28428;BME280;15662;49.128;8.520;2023-03-15T10:09:02;100693.56;;;11.39;51.01
28428;BME280;15662;49.128;8.520;2023-03-15T10:12:03;100689.19;;;11.36;50.08
28428;BME280;15662;49.128;8.520;2023-03-15T10:20:32;100706.19;;;11.29;50.28
28428;BME280;15662;49.128;8.520;2023-03-15T10:23:35;100685.16;;;11.20;49.80
28428;BME280;15662;49.128;8.520;2023-03-15T10:26:11;100684.44;;;11.12;49.69
28428;BME280;15662;49.128;8.520;2023-03-15T10:28:43;100688.06;;;11.09;49.76
28428;BME280;15662;49.128;8.520;2023-03-15T10:31:17;100678.53;;;11.01;49.76
28428;BME280;15662;49.128;8.520;2023-03-15T10:34:00;100695.22;;;11.06;49.13
28428;BME280;15662;49.128;8.520;2023-03-15T10:36:29;100699.59;;;11.08;49.40
28428;BME280;15662;49.128;8.520;2023-03-15T10:38:58;100682.19;;;10.95;49.52
28428;BME280;15662;49.128;8.520;2023-03-15T10:41:47;100695.34;;;11.00;50.09
28428;BME280;15662;49.128;8.520;2023-03-15T10:44:24;100713.91;;;11.00;50.39
28428;BME280;15662;49.128;8.520;2023-03-15T10:47:13;100708.84;;;10.89;50.58
28428;BME280;15662;49.128;8.520;2023-03-15T10:49:58;100710.00;;;10.76;51.16
28428;BME280;15662;49.128;8.520;2023-03-15T10:52:43;100720.53;;;10.80;51.61
28428;BME280;15662;49.128;8.520;2023-03-15T10:55:25;100720.75;;;10.70;51.84
28428;BME280;15662;49.128;8.520;2023-03-15T10:57:57;100713.16;;;10.51;51.90
28428;BME280;15662;49.128;8.520;2023-03-15T11:00:33;100729.38;;;10.36;52.11
28428;BME280;15662;49.128;8.520;2023-03-15T11:03:26;100753.31;;;10.31;52.71
28428;BME280;15662;49.128;8.520;2023-03-15T11:05:58;100734.22;;;10.11;53.18
28428;BME280;15662;49.128;8.520;2023-03-15T11:08:40;100723.72;;;10.06;53.41
28428;BME280;15662;49.128;8.520;2023-03-15T11:11:10;100739.50;;;10.11;53.86
28428;BME280;15662;49.128;8.520;2023-03-15T11:13:40;100724.50;;;10.12;53.86
28428;BME280;15662;49.128;8.520;2023-03-15T11:19:03;100714.84;;;10.07;53.66
28428;BME280;15662;49.128;8.520;2023-03-15T11:21:41;100716.63;;;10.07;54.17
28428;BME280;15662;49.128;8.520;2023-03-15T11:24:25;100732.31;;;10.18;54.45
28428;BME280;15662;49.128;8.520;2023-03-15T11:26:59;100735.75;;;10.23;54.56
28428;BME280;15662;49.128;8.520;2023-03-15T11:29:33;100709.44;;;10.14;54.79
28428;BME280;15662;49.128;8.520;2023-03-15T11:32:30;100731.06;;;10.39;55.06
28428;BME280;15662;49.128;8.520;2023-03-15T11:35:23;100743.19;;;10.52;55.22
28428;BME280;15662;49.128;8.520;2023-03-15T11:38:12;100708.78;;;10.50;55.34
28428;BME280;15662;49.128;8.520;2023-03-15T11:40:47;100711.16;;;10.63;55.85
28428;BME280;15662;49.128;8.520;2023-03-15T11:46:04;100709.59;;;10.96;56.04
28428;BME280;15662;49.128;8.520;2023-03-15T11:49:11;100707.34;;;11.16;56.28
28428;BME280;15662;49.128;8.520;2023-03-15T11:51:44;100720.16;;;11.36;56.74
28428;BME280;15662;49.128;8.520;2023-03-15T11:54:19;100700.56;;;11.42;56.05
28428;BME280;15662;49.128;8.520;2023-03-15T11:59:37;100705.47;;;11.58;55.59
28428;BME280;15662;49.128;8.520;2023-03-15T12:04:52;100719.19;;;11.77;55.63
28428;BME280;15662;49.128;8.520;2023-03-15T12:12:35;100717.84;;;11.95;55.40
28428;BME280;15662;49.128;8.520;2023-03-15T12:17:58;100718.19;;;12.17;55.62
28428;BME280;15662;49.128;8.520;2023-03-15T12:20:36;100704.00;;;12.17;55.30
28428;BME280;15662;49.128;8.520;2023-03-15T12:29:22;100693.47;;;12.13;55.55
28428;BME280;15662;49.128;8.520;2023-03-15T12:37:05;100713.81;;;12.46;54.49
28428;BME280;15662;49.128;8.520;2023-03-15T12:39:53;100711.44;;;12.36;54.01
28428;BME280;15662;49.128;8.520;2023-03-15T12:53:35;100722.97;;;12.37;53.79
28428;BME280;15662;49.128;8.520;2023-03-15T12:59:24;100720.44;;;12.31;53.34
28428;BME280;15662;49.128;8.520;2023-03-15T13:01:57;100711.72;;;12.26;53.11
28428;BME280;15662;49.128;8.520;2023-03-15T13:04:28;100694.16;;;12.22;53.60
28428;BME280;15662;49.128;8.520;2023-03-15T13:07:24;100697.44;;;12.30;53.67
28428;BME280;15662;49.128;8.520;2023-03-15T13:19:38;100698.63;;;12.51;52.98
28428;BME280;15662;49.128;8.520;2023-03-15T13:28:37;100680.38;;;12.38;52.01
28428;BME280;15662;49.128;8.520;2023-03-15T13:31:22;100708.38;;;12.52;51.77
28428;BME280;15662;49.128;8.520;2023-03-15T13:34:06;100689.09;;;12.44;51.62
28428;BME280;15662;49.128;8.520;2023-03-15T13:36:58;100676.00;;;12.36;51.62
28428;BME280;15662;49.128;8.520;2023-03-15T13:39:31;100698.94;;;12.40;51.68
28428;BME280;15662;49.128;8.520;2023-03-15T13:42:16;100683.22;;;12.32;51.95
28428;BME280;15662;49.128;8.520;2023-03-15T13:44:45;100686.47;;;12.42;51.89
28428;BME280;15662;49.128;8.520;2023-03-15T13:47:20;100684.44;;;12.52;52.32
28428;BME280;15662;49.128;8.520;2023-03-15T13:49:51;100688.59;;;12.60;51.70
28428;BME280;15662;49.128;8.520;2023-03-15T13:52:21;100695.22;;;12.77;52.05
28428;BME280;15662;49.128;8.520;2023-03-15T13:54:51;100671.19;;;12.80;51.86
28428;BME280;15662;49.128;8.520;2023-03-15T13:57:22;100686.66;;;12.95;51.47
28428;BME280;15662;49.128;8.520;2023-03-15T14:00:01;100677.31;;;13.11;50.77
28428;BME280;15662;49.128;8.520;2023-03-15T14:02:59;100672.91;;;13.10;49.79
28428;BME280;15662;49.128;8.520;2023-03-15T14:05:32;100661.84;;;12.96;50.05
28428;BME280;15662;49.128;8.520;2023-03-15T14:08:06;100667.69;;;13.07;50.27
28428;BME280;15662;49.128;8.520;2023-03-15T14:10:42;100667.00;;;13.01;49.42
28428;BME280;15662;49.128;8.520;2023-03-15T14:13:25;100683.59;;;13.09;49.89
28428;BME280;15662;49.128;8.520;2023-03-15T14:15:59;100683.78;;;13.03;49.55
28428;BME280;15662;49.128;8.520;2023-03-15T14:18:39;100660.38;;;12.86;49.95
28428;BME280;15662;49.128;8.520;2023-03-15T14:21:18;100685.44;;;13.07;49.95
28428;BME280;15662;49.128;8.520;2023-03-15T14:23:53;100683.66;;;13.07;50.38
28428;BME280;15662;49.128;8.520;2023-03-15T14:26:28;100672.06;;;13.08;49.82
28428;BME280;15662;49.128;8.520;2023-03-15T14:29:28;100669.69;;;12.99;49.77
28428;BME280;15662;49.128;8.520;2023-03-15T14:32:11;100683.59;;;13.09;49.25
28428;BME280;15662;49.128;8.520;2023-03-15T14:35:28;100680.19;;;13.05;49.12
28428;BME280;15662;49.128;8.520;2023-03-15T14:40:35;100681.22;;;13.00;49.69
28428;BME280;15662;49.128;8.520;2023-03-15T14:43:06;100670.56;;;13.00;49.03
28428;BME280;15662;49.128;8.520;2023-03-15T14:45:38;100685.31;;;13.11;49.60
28428;BME280;15662;49.128;8.520;2023-03-15T14:48:25;100695.81;;;13.16;48.91
28428;BME280;15662;49.128;8.520;2023-03-15T14:50:56;100687.81;;;13.16;49.27
28428;BME280;15662;49.128;8.520;2023-03-15T14:53:26;100689.44;;;13.22;49.44
28428;BME280;15662;49.128;8.520;2023-03-15T14:55:58;100667.63;;;13.09;48.64
28428;BME280;15662;49.128;8.520;2023-03-15T14:58:29;100680.66;;;13.18;48.88
28428;BME280;15662;49.128;8.520;2023-03-15T15:01:02;100670.94;;;13.17;48.55